Cavetown, Maryland
Current Conditions -  °F | °C
As of 10:53 PM on Saturday 25 Oct 2014 (Local Time) from KHGR Reporting Station
Clear Clear  
Wind Chill: 64°   Ceiling: Unl
Heat Index: 64°   Visibility: 10mi
Dew Point: 48°   Wind: 13mph
Humidity: 56%   Direction: 260°W
Pressure: 29.69"   Gusts: NA
Location:  39.64°N, 77.59°W
Report Text: KHGR 260253Z AUTO 26011KT 10SM CLR 18/09 A2969 RMK AO2 SLP061 T01780089 56016
Loading
Personal Weather Stations






























Interactive Weather Map
Tropical Storm Tracking
New forecast layout! Learn more

10-Day Weather Forecast

Advertisements
Track Severe Weather on mobile